Time;durP1;ratioP1;P1;durP2;ratioP2;P2;SDS_P1;SDS_P2;PMS_P1;PMS_P2;Temp;Humidity;BMP_temperature;BMP_pressure;BME280_temperature;BME280_humidity;BME280_pressure;Samples;Min_cycle;Max_cycle;Signal;HPM_P1;HPM_P2
2022/01/16 00:01:17;;;;;;;;;;;23.50;50.20;;;;;;1577954;75;1156;-73
2022/01/16 00:05:30;;;;;;;;;;;23.50;50.20;;;;;;1575488;75;1926;-76
2022/01/16 00:07:32;;;;;;;;;;;23.40;50.00;;;;;;1577851;75;815;-75
2022/01/16 00:09:39;;;;;;;;;;;23.40;50.10;;;;;;1576326;75;1245;-75
2022/01/16 00:11:38;;;;;;;;;;;23.50;50.20;;;;;;1578321;75;1283;-72
2022/01/16 00:13:41;;;;;;;;;;;23.50;50.20;;;;;;1568538;75;690;-72
2022/01/16 00:15:44;;;;;;;;;;;23.50;50.20;;;;;;1574018;75;749;-74
2022/01/16 00:17:54;;;;;;;;;;;23.50;50.20;;;;;;1577610;75;777;-73
2022/01/16 00:19:50;;;;;;;;;;;23.50;50.10;;;;;;1573287;75;1629;-73
2022/01/16 00:21:52;;;;;;;;;;;23.50;50.10;;;;;;1578657;75;757;-74
2022/01/16 00:23:54;;;;;;;;;;;23.50;50.10;;;;;;1578202;74;801;-75
2022/01/16 00:25:56;;;;;;;;;;;23.40;50.00;;;;;;1574997;75;1932;-78
2022/01/16 00:27:58;;;;;;;;;;;23.40;49.80;;;;;;1574028;75;795;-74
2022/01/16 00:30:00;;;;;;;;;;;23.50;50.10;;;;;;1579466;75;1146;-73
2022/01/16 00:32:02;;;;;;;;;;;23.40;50.00;;;;;;1577231;75;778;-74
2022/01/16 00:34:04;;;;;;;;;;;23.40;49.90;;;;;;1577421;75;790;-75
2022/01/16 00:36:10;;;;;;;;;;;23.40;50.00;;;;;;1579447;75;764;-74
2022/01/16 00:38:12;;;;;;;;;;;23.40;50.00;;;;;;1578383;75;798;-76
2022/01/16 00:40:14;;;;;;;;;;;23.50;50.10;;;;;;1577355;75;1141;-75
2022/01/16 00:42:16;;;;;;;;;;;23.50;50.10;;;;;;1573147;75;734;-74
2022/01/16 00:44:18;;;;;;;;;;;23.40;50.00;;;;;;1578839;75;789;-73
2022/01/16 00:46:19;;;;;;;;;;;23.50;50.10;;;;;;1573681;75;1937;-75
2022/01/16 00:48:21;;;;;;;;;;;23.40;50.00;;;;;;1577361;75;704;-72
2022/01/16 00:50:23;;;;;;;;;;;23.50;50.20;;;;;;1579169;75;1176;-74
2022/01/16 00:52:25;;;;;;;;;;;23.40;50.00;;;;;;1577423;75;836;-75
2022/01/16 00:54:27;;;;;;;;;;;23.40;50.00;;;;;;1577621;75;747;-76
2022/01/16 00:56:29;;;;;;;;;;;23.50;50.20;;;;;;1577561;75;740;-73
2022/01/16 00:58:31;;;;;;;;;;;23.50;50.20;;;;;;1578639;75;785;-74
2022/01/16 01:00:33;;;;;;;;;;;23.50;50.20;;;;;;1577117;75;1164;-73
2022/01/16 01:02:35;;;;;;;;;;;23.40;50.10;;;;;;1579245;75;723;-74
2022/01/16 01:04:37;;;;;;;;;;;23.40;50.10;;;;;;1579185;75;1946;-76
2022/01/16 01:06:39;;;;;;;;;;;23.50;50.30;;;;;;1577759;75;729;-76
2022/01/16 01:08:41;;;;;;;;;;;23.50;50.30;;;;;;1574171;75;782;-75
2022/01/16 01:10:46;;;;;;;;;;;23.40;50.20;;;;;;1572199;75;1234;-77
2022/01/16 01:12:54;;;;;;;;;;;23.50;50.50;;;;;;1570447;75;1161;-77
2022/01/16 01:15:10;;;;;;;;;;;23.50;50.50;;;;;;1571822;75;912;-75
2022/01/16 01:17:12;;;;;;;;;;;23.40;50.30;;;;;;1577639;75;1640;-79
2022/01/16 01:19:12;;;;;;;;;;;23.40;50.20;;;;;;1576829;75;1070;-78
2022/01/16 01:21:27;;;;;;;;;;;23.50;50.40;;;;;;1577195;75;1275;-77
2022/01/16 01:23:17;;;;;;;;;;;23.40;50.30;;;;;;1570656;75;1461;-73
2022/01/16 01:25:19;;;;;;;;;;;23.40;50.30;;;;;;1577653;74;1946;-75
2022/01/16 01:27:23;;;;;;;;;;;23.40;50.30;;;;;;1575855;75;674;-73
2022/01/16 01:29:28;;;;;;;;;;;23.40;50.40;;;;;;1573435;75;1123;-75
2022/01/16 01:31:30;;;;;;;;;;;23.40;50.40;;;;;;1576957;75;1123;-75
2022/01/16 01:33:32;;;;;;;;;;;23.40;50.40;;;;;;1572341;75;722;-74
2022/01/16 01:35:38;;;;;;;;;;;23.50;50.50;;;;;;1576859;75;743;-75
2022/01/16 01:37:37;;;;;;;;;;;23.50;50.60;;;;;;1574371;75;1615;-78
2022/01/16 01:39:39;;;;;;;;;;;23.40;50.50;;;;;;1579139;75;1144;-74
2022/01/16 01:41:41;;;;;;;;;;;23.40;50.50;;;;;;1570958;75;747;-71
2022/01/16 01:52:46;;;;;;;;;;;23.50;50.60;;;;;;1576237;75;1623;-73
2022/01/16 01:54:48;;;;;;;;;;;23.40;50.50;;;;;;1577486;75;823;-74
2022/01/16 01:56:50;;;;;;;;;;;23.40;50.50;;;;;;1574459;75;716;-74
2022/01/16 01:58:53;;;;;;;;;;;23.40;50.50;;;;;;1579335;75;696;-75
2022/01/16 02:00:55;;;;;;;;;;;23.40;50.50;;;;;;1578153;75;2193;-74
2022/01/16 02:03:11;;;;;;;;;;;23.40;50.60;;;;;;1579216;75;716;-75
2022/01/16 02:05:01;;;;;;;;;;;23.50;50.70;;;;;;1576997;75;1916;-75
2022/01/16 02:07:03;;;;;;;;;;;23.40;50.50;;;;;;1560858;75;756;-75
2022/01/16 02:09:06;;;;;;;;;;;23.50;50.70;;;;;;1566970;75;737;-75
2022/01/16 02:11:08;;;;;;;;;;;23.40;50.60;;;;;;1570157;75;1136;-76
2022/01/16 02:13:19;;;;;;;;;;;23.50;50.70;;;;;;1569860;75;1077;-74
2022/01/16 02:31:25;;;;;;;;;;;23.50;50.70;;;;;;1552196;76;611;-74
2022/01/16 02:35:47;;;;;;;;;;;23.40;50.70;;;;;;1552018;76;858;-74
2022/01/16 02:37:48;;;;;;;;;;;23.40;50.70;;;;;;1566629;75;1511;-73
2022/01/16 02:39:52;;;;;;;;;;;23.50;50.80;;;;;;1579116;75;1132;-73
2022/01/16 02:41:55;;;;;;;;;;;23.30;50.60;;;;;;1578891;75;1131;-74
2022/01/16 02:43:57;;;;;;;;;;;23.50;50.70;;;;;;1579156;75;795;-74
2022/01/16 02:48:19;;;;;;;;;;;23.50;50.80;;;;;;1578400;75;864;-74
2022/01/16 02:50:20;;;;;;;;;;;23.40;50.60;;;;;;1552284;76;1155;-76
2022/01/16 02:52:22;;;;;;;;;;;23.40;50.70;;;;;;1552282;76;775;-73
2022/01/16 02:54:26;;;;;;;;;;;23.40;50.70;;;;;;1552280;76;728;-74
2022/01/16 02:56:28;;;;;;;;;;;23.50;50.90;;;;;;1552212;76;717;-74
2022/01/16 02:58:29;;;;;;;;;;;23.40;50.70;;;;;;1561339;75;775;-74
2022/01/16 03:00:31;;;;;;;;;;;23.40;50.70;;;;;;1576120;73;3093;-67
2022/01/16 03:02:33;;;;;;;;;;;23.50;50.80;;;;;;1543448;76;702;-66
2022/01/16 03:04:35;;;;;;;;;;;23.40;50.60;;;;;;1543419;76;717;-66
2022/01/16 03:06:37;;;;;;;;;;;23.40;50.70;;;;;;1543427;77;1936;-67
2022/01/16 03:08:39;;;;;;;;;;;23.50;50.70;;;;;;1551423;76;744;-67
2022/01/16 03:11:02;;;;;;;;;;;23.50;50.80;;;;;;1553091;76;1252;-67
2022/01/16 03:12:49;;;;;;;;;;;23.40;50.60;;;;;;1558821;76;1630;-66
2022/01/16 03:14:50;;;;;;;;;;;23.40;50.60;;;;;;1562911;76;1604;-67
2022/01/16 03:16:53;;;;;;;;;;;23.40;50.60;;;;;;1563226;75;655;-66
2022/01/16 03:23:34;;;;;;;;;;;23.40;50.80;;;;;;1563160;75;731;-66
2022/01/16 03:25:36;;;;;;;;;;;23.40;50.80;;;;;;1563143;75;1940;-68
2022/01/16 03:27:38;;;;;;;;;;;23.30;50.80;;;;;;1562202;76;726;-68
2022/01/16 03:29:41;;;;;;;;;;;23.30;50.80;;;;;;1563138;76;795;-68
2022/01/16 03:31:42;;;;;;;;;;;23.40;50.90;;;;;;1563239;75;1140;-69
2022/01/16 03:33:44;;;;;;;;;;;23.40;50.90;;;;;;1563224;76;747;-68
2022/01/16 03:35:47;;;;;;;;;;;23.40;50.90;;;;;;1562098;76;736;-67
2022/01/16 03:37:49;;;;;;;;;;;23.50;51.00;;;;;;1563221;75;738;-67
2022/01/16 03:39:50;;;;;;;;;;;23.50;51.00;;;;;;1555779;76;1112;-68
2022/01/16 03:41:55;;;;;;;;;;;23.40;50.80;;;;;;1574686;75;740;-68
2022/01/16 03:43:58;;;;;;;;;;;23.50;50.90;;;;;;1566112;75;1623;-68
2022/01/16 03:46:00;;;;;;;;;;;23.50;50.80;;;;;;1561711;75;1982;-69
2022/01/16 03:48:02;;;;;;;;;;;23.50;50.80;;;;;;1561702;75;735;-68
2022/01/16 03:50:04;;;;;;;;;;;23.60;50.70;;;;;;1560807;75;1170;-69
2022/01/16 03:52:06;;;;;;;;;;;23.60;50.60;;;;;;1561548;75;709;-70
2022/01/16 03:54:08;;;;;;;;;;;23.60;50.60;;;;;;1561588;76;735;-67
2022/01/16 03:56:10;;;;;;;;;;;23.60;50.60;;;;;;1561549;76;727;-68
2022/01/16 03:58:12;;;;;;;;;;;23.70;50.70;;;;;;1560540;76;719;-68
2022/01/16 04:00:14;;;;;;;;;;;23.60;50.50;;;;;;1561723;75;1219;-68
2022/01/16 04:02:16;;;;;;;;;;;23.70;50.50;;;;;;1561677;76;764;-68
2022/01/16 04:04:18;;;;;;;;;;;23.70;50.50;;;;;;1561496;75;703;-68
2022/01/16 04:06:20;;;;;;;;;;;23.70;50.30;;;;;;1560932;76;1930;-68
2022/01/16 04:08:22;;;;;;;;;;;23.80;50.20;;;;;;1562988;75;793;-68
2022/01/16 04:10:24;;;;;;;;;;;23.80;50.10;;;;;;1563190;75;1138;-68
2022/01/16 04:12:26;;;;;;;;;;;23.90;50.10;;;;;;1555542;76;852;-69
2022/01/16 04:16:49;;;;;;;;;;;23.90;49.90;;;;;;1588578;75;858;-67
2022/01/16 04:18:51;;;;;;;;;;;24.00;50.00;;;;;;1567765;75;777;-67
2022/01/16 04:20:53;;;;;;;;;;;23.90;49.90;;;;;;1563002;75;1154;-67
2022/01/16 04:22:55;;;;;;;;;;;24.00;49.90;;;;;;1563200;76;761;-68
2022/01/16 04:24:57;;;;;;;;;;;23.90;49.90;;;;;;1563009;76;738;-66
2022/01/16 04:26:59;;;;;;;;;;;24.00;50.00;;;;;;1561951;75;1934;-67
2022/01/16 04:29:01;;;;;;;;;;;23.80;50.00;;;;;;1563223;76;715;-67
2022/01/16 04:31:03;;;;;;;;;;;23.90;50.10;;;;;;1563002;76;1102;-68
2022/01/16 04:33:05;;;;;;;;;;;23.90;50.00;;;;;;1563123;76;716;-68
2022/01/16 04:35:07;;;;;;;;;;;23.90;50.00;;;;;;1563148;75;635;-65
2022/01/16 04:37:09;;;;;;;;;;;23.90;50.00;;;;;;1541483;76;741;-69
2022/01/16 04:39:17;;;;;;;;;;;23.90;50.00;;;;;;1535543;77;809;-67
2022/01/16 04:43:50;;;;;;;;;;;23.90;49.90;;;;;;1561414;75;729;-69
2022/01/16 04:45:52;;;;;;;;;;;23.90;49.90;;;;;;1536653;77;1902;-67
2022/01/16 04:47:55;;;;;;;;;;;23.90;49.90;;;;;;1536712;77;725;-67
2022/01/16 04:49:57;;;;;;;;;;;23.90;49.90;;;;;;1557208;76;1208;-67
2022/01/16 04:51:59;;;;;;;;;;;23.90;49.90;;;;;;1561694;75;719;-67
2022/01/16 04:54:00;;;;;;;;;;;23.80;49.70;;;;;;1561628;76;713;-66
2022/01/16 04:56:02;;;;;;;;;;;23.90;49.90;;;;;;1561589;75;722;-66
2022/01/16 04:58:04;;;;;;;;;;;23.90;50.10;;;;;;1560600;76;665;-66
2022/01/16 05:00:07;;;;;;;;;;;23.90;50.00;;;;;;1563130;76;1158;-67
2022/01/16 05:02:09;;;;;;;;;;;23.90;49.90;;;;;;1563114;75;841;-66
2022/01/16 05:04:11;;;;;;;;;;;23.90;49.90;;;;;;1563073;75;785;-66
2022/01/16 05:06:13;;;;;;;;;;;23.90;49.80;;;;;;1563100;75;1942;-63
2022/01/16 05:08:15;;;;;;;;;;;24.00;49.80;;;;;;1562136;76;594;-67
2022/01/16 05:10:17;;;;;;;;;;;23.90;49.80;;;;;;1563117;75;1138;-67
2022/01/16 05:12:27;;;;;;;;;;;23.90;49.70;;;;;;1563235;76;790;-66
2022/01/16 05:16:43;;;;;;;;;;;24.00;49.70;;;;;;1563105;75;1667;-67
2022/01/16 05:18:44;;;;;;;;;;;23.90;49.60;;;;;;1557671;76;739;-66
2022/01/16 05:20:46;;;;;;;;;;;24.00;49.50;;;;;;1563178;76;1095;-66
2022/01/16 05:22:48;;;;;;;;;;;23.90;49.50;;;;;;1563272;76;712;-66
2022/01/16 05:24:50;;;;;;;;;;;23.90;49.50;;;;;;1563272;76;728;-66
2022/01/16 05:26:52;;;;;;;;;;;24.00;49.50;;;;;;1562018;76;1926;-67
2022/01/16 05:28:54;;;;;;;;;;;24.00;49.40;;;;;;1563362;76;711;-68
2022/01/16 05:30:56;;;;;;;;;;;24.00;49.40;;;;;;1563097;75;1138;-66
2022/01/16 05:32:58;;;;;;;;;;;24.00;49.40;;;;;;1563364;75;712;-67
2022/01/16 05:35:00;;;;;;;;;;;24.00;49.40;;;;;;1563319;76;716;-68
2022/01/16 05:37:02;;;;;;;;;;;24.00;49.40;;;;;;1562061;75;711;-66
2022/01/16 05:39:04;;;;;;;;;;;24.00;49.40;;;;;;1563202;75;703;-66
2022/01/16 05:41:06;;;;;;;;;;;24.00;49.30;;;;;;1562250;76;1122;-66
2022/01/16 05:43:08;;;;;;;;;;;24.10;49.30;;;;;;1561625;76;743;-67
2022/01/16 05:45:10;;;;;;;;;;;24.10;49.30;;;;;;1561079;76;789;-66
2022/01/16 05:47:12;;;;;;;;;;;24.10;49.20;;;;;;1563102;75;1930;-66
2022/01/16 05:49:14;;;;;;;;;;;24.10;49.40;;;;;;1561404;75;716;-67
2022/01/16 05:51:16;;;;;;;;;;;24.10;49.40;;;;;;1561791;76;1103;-67
2022/01/16 05:53:18;;;;;;;;;;;24.00;49.30;;;;;;1561621;76;763;-67
2022/01/16 05:55:20;;;;;;;;;;;24.00;49.40;;;;;;1561678;76;767;-66
2022/01/16 05:57:22;;;;;;;;;;;24.00;49.40;;;;;;1561022;76;585;-67
2022/01/16 05:59:24;;;;;;;;;;;24.00;49.50;;;;;;1559643;75;708;-66
2022/01/16 06:01:26;;;;;;;;;;;24.00;49.70;;;;;;1563807;75;1182;-68
2022/01/16 06:03:27;;;;;;;;;;;23.90;49.70;;;;;;1563739;75;845;-67
2022/01/16 06:05:29;;;;;;;;;;;23.90;49.70;;;;;;1580868;75;673;-66
2022/01/16 06:07:31;;;;;;;;;;;24.00;49.50;;;;;;1563228;75;1951;-68
2022/01/16 06:09:33;;;;;;;;;;;24.00;49.60;;;;;;1563108;76;791;-67
2022/01/16 06:11:35;;;;;;;;;;;24.00;49.70;;;;;;1562852;76;1087;-67
2022/01/16 06:13:37;;;;;;;;;;;23.90;49.70;;;;;;1560253;75;738;-68
2022/01/16 06:15:40;;;;;;;;;;;23.90;49.70;;;;;;1563126;76;707;-67
2022/01/16 06:17:42;;;;;;;;;;;24.00;49.70;;;;;;1561483;76;719;-68
2022/01/16 06:19:44;;;;;;;;;;;24.00;49.70;;;;;;1560027;76;715;-67
2022/01/16 06:21:46;;;;;;;;;;;24.00;49.70;;;;;;1563221;75;1119;-66
2022/01/16 06:23:48;;;;;;;;;;;24.00;49.60;;;;;;1563249;76;646;-66
2022/01/16 06:25:54;;;;;;;;;;;23.90;49.60;;;;;;1563028;76;729;-68
2022/01/16 06:27:53;;;;;;;;;;;24.00;49.60;;;;;;1562355;76;1916;-67
2022/01/16 06:29:55;;;;;;;;;;;24.00;49.50;;;;;;1563171;76;1164;-66
2022/01/16 06:31:57;;;;;;;;;;;24.00;49.50;;;;;;1563106;75;788;-67
2022/01/16 06:34:04;;;;;;;;;;;24.00;49.60;;;;;;1563269;76;734;-67
2022/01/16 06:36:05;;;;;;;;;;;24.00;49.50;;;;;;1558918;75;1598;-68
2022/01/16 06:38:07;;;;;;;;;;;24.00;49.60;;;;;;1576792;75;739;-69
2022/01/16 06:40:11;;;;;;;;;;;24.00;49.70;;;;;;1562998;75;1138;-71
2022/01/16 06:42:13;;;;;;;;;;;24.00;49.70;;;;;;1556679;75;756;-70
2022/01/16 06:44:14;;;;;;;;;;;23.90;49.70;;;;;;1566874;75;656;-70
2022/01/16 06:46:16;;;;;;;;;;;23.90;49.80;;;;;;1576386;75;818;-68
2022/01/16 06:48:18;;;;;;;;;;;24.00;49.80;;;;;;1567231;75;1944;-69
2022/01/16 06:50:20;;;;;;;;;;;24.00;49.70;;;;;;1567658;75;1125;-69
2022/01/16 06:52:22;;;;;;;;;;;24.00;49.80;;;;;;1566692;75;768;-68
2022/01/16 06:54:24;;;;;;;;;;;24.00;49.80;;;;;;1567207;75;765;-69
2022/01/16 06:56:26;;;;;;;;;;;24.00;49.80;;;;;;1569570;75;715;-68
2022/01/16 06:58:28;;;;;;;;;;;24.00;49.80;;;;;;1565280;75;686;-70
2022/01/16 07:00:29;;;;;;;;;;;24.00;49.80;;;;;;1566192;75;1188;-70
2022/01/16 07:02:31;;;;;;;;;;;24.00;49.70;;;;;;1569623;75;752;-69
2022/01/16 07:04:33;;;;;;;;;;;24.00;49.70;;;;;;1566794;75;653;-68
2022/01/16 07:06:35;;;;;;;;;;;24.00;49.70;;;;;;1569585;75;787;-70
2022/01/16 07:08:37;;;;;;;;;;;24.00;49.70;;;;;;1569478;75;1936;-69
2022/01/16 07:10:39;;;;;;;;;;;24.00;49.60;;;;;;1555060;75;1212;-70
2022/01/16 07:12:41;;;;;;;;;;;24.00;49.60;;;;;;1548235;75;717;-70
2022/01/16 07:14:43;;;;;;;;;;;24.10;49.70;;;;;;1552635;75;721;-69
2022/01/16 07:16:45;;;;;;;;;;;24.00;49.60;;;;;;1563068;75;666;-70
2022/01/16 07:18:46;;;;;;;;;;;24.00;49.60;;;;;;1578336;75;749;-69
2022/01/16 07:20:48;;;;;;;;;;;24.10;49.70;;;;;;1574776;75;1181;-69
2022/01/16 07:22:50;;;;;;;;;;;24.10;49.70;;;;;;1563206;75;709;-69
2022/01/16 07:24:52;;;;;;;;;;;24.00;49.60;;;;;;1563255;75;723;-70
2022/01/16 07:26:54;;;;;;;;;;;24.10;49.70;;;;;;1562091;76;1915;-69
2022/01/16 07:28:56;;;;;;;;;;;24.00;49.60;;;;;;1563188;76;747;-68
2022/01/16 07:30:58;;;;;;;;;;;24.00;49.60;;;;;;1563222;75;1200;-69
2022/01/16 07:33:00;;;;;;;;;;;24.10;49.70;;;;;;1563058;75;690;-69
2022/01/16 07:35:03;;;;;;;;;;;24.00;49.50;;;;;;1562135;75;733;-69
2022/01/16 07:37:05;;;;;;;;;;;24.00;49.60;;;;;;1563012;75;788;-71
2022/01/16 07:39:07;;;;;;;;;;;24.20;49.70;;;;;;1563087;76;745;-70
2022/01/16 07:41:09;;;;;;;;;;;24.00;49.60;;;;;;1562236;76;1134;-70
2022/01/16 07:43:13;;;;;;;;;;;24.10;49.70;;;;;;1560840;75;718;-70
2022/01/16 07:45:15;;;;;;;;;;;24.10;49.70;;;;;;1563066;75;777;-70
2022/01/16 07:47:17;;;;;;;;;;;24.10;49.70;;;;;;1563188;76;1930;-68
2022/01/16 07:49:18;;;;;;;;;;;24.10;49.70;;;;;;1569023;75;707;-71
2022/01/16 07:51:20;;;;;;;;;;;24.10;49.70;;;;;;1578195;75;1102;-70
2022/01/16 07:53:22;;;;;;;;;;;24.20;49.70;;;;;;1578012;75;788;-71
2022/01/16 07:55:26;;;;;;;;;;;24.10;49.80;;;;;;1578018;75;694;-68
2022/01/16 07:57:28;;;;;;;;;;;24.10;49.80;;;;;;1572502;75;702;-71
2022/01/16 07:59:29;;;;;;;;;;;24.20;49.70;;;;;;1563122;75;706;-70
2022/01/16 08:01:31;;;;;;;;;;;24.10;49.70;;;;;;1561438;75;1135;-71
2022/01/16 08:03:33;;;;;;;;;;;24.20;49.70;;;;;;1575908;74;790;-71
2022/01/16 08:05:35;;;;;;;;;;;24.10;49.80;;;;;;1577906;75;807;-69
2022/01/16 08:07:37;;;;;;;;;;;24.20;49.80;;;;;;1582212;75;1941;-69
2022/01/16 08:09:39;;;;;;;;;;;24.00;49.60;;;;;;1576105;75;731;-73
2022/01/16 08:11:41;;;;;;;;;;;24.20;49.90;;;;;;1561736;75;1135;-70
2022/01/16 08:13:43;;;;;;;;;;;24.10;49.80;;;;;;1565460;75;845;-71
2022/01/16 08:15:45;;;;;;;;;;;24.10;49.80;;;;;;1549234;75;732;-70
2022/01/16 08:17:47;;;;;;;;;;;24.00;49.70;;;;;;1560430;75;698;-71
2022/01/16 08:19:49;;;;;;;;;;;24.10;49.80;;;;;;1547696;75;1136;-70
2022/01/16 08:21:51;;;;;;;;;;;24.10;49.70;;;;;;1563867;75;743;-72
2022/01/16 08:23:52;;;;;;;;;;;24.00;49.70;;;;;;1555928;75;733;-73
2022/01/16 08:25:54;;;;;;;;;;;24.10;49.80;;;;;;1568838;75;731;-71
2022/01/16 08:27:57;;;;;;;;;;;24.10;49.80;;;;;;1560827;75;1942;-70
2022/01/16 08:29:59;;;;;;;;;;;24.10;49.80;;;;;;1559118;75;1150;-68
2022/01/16 08:32:00;;;;;;;;;;;24.10;49.90;;;;;;1542893;75;713;-69
2022/01/16 08:34:02;;;;;;;;;;;24.10;50.00;;;;;;1558771;75;749;-69
2022/01/16 08:36:04;;;;;;;;;;;24.10;50.10;;;;;;1547147;75;784;-69
2022/01/16 08:38:06;;;;;;;;;;;24.00;50.00;;;;;;1553080;75;783;-69
2022/01/16 08:40:09;;;;;;;;;;;24.00;50.00;;;;;;1560592;75;1132;-69
2022/01/16 08:42:10;;;;;;;;;;;24.00;50.00;;;;;;1540465;75;811;-69
2022/01/16 08:44:12;;;;;;;;;;;24.10;50.10;;;;;;1551737;75;773;-72
2022/01/16 08:46:14;;;;;;;;;;;24.10;50.20;;;;;;1559483;75;585;-69
2022/01/16 08:48:16;;;;;;;;;;;24.00;50.00;;;;;;1561705;75;1938;-71
2022/01/16 08:50:18;;;;;;;;;;;24.20;49.70;;;;;;1567952;75;1172;-71
2022/01/16 08:52:21;;;;;;;;;;;24.30;49.50;;;;;;1556962;75;731;-68
2022/01/16 08:54:23;;;;;;;;;;;24.30;49.20;;;;;;1571993;75;695;-69
2022/01/16 08:56:25;;;;;;;;;;;24.40;49.00;;;;;;1556456;75;706;-69
2022/01/16 08:58:27;;;;;;;;;;;24.40;48.80;;;;;;1566055;75;758;-69
2022/01/16 09:00:29;;;;;;;;;;;24.40;48.80;;;;;;1559330;75;1129;-69
2022/01/16 09:02:31;;;;;;;;;;;24.30;48.90;;;;;;1567547;75;780;-70
2022/01/16 09:04:33;;;;;;;;;;;24.30;48.90;;;;;;1558754;75;826;-69
2022/01/16 09:06:35;;;;;;;;;;;24.20;48.90;;;;;;1539228;76;729;-70
2022/01/16 09:08:36;;;;;;;;;;;24.20;48.90;;;;;;1537226;76;1937;-68
2022/01/16 09:10:38;;;;;;;;;;;24.20;49.00;;;;;;1554830;75;1146;-69
2022/01/16 09:12:40;;;;;;;;;;;24.20;49.00;;;;;;1558916;75;704;-67
2022/01/16 09:14:42;;;;;;;;;;;24.10;49.00;;;;;;1556886;75;792;-69
2022/01/16 09:16:44;;;;;;;;;;;24.10;49.10;;;;;;1558851;75;754;-70
2022/01/16 09:18:47;;;;;;;;;;;24.10;49.00;;;;;;1558177;75;782;-69
2022/01/16 09:20:49;;;;;;;;;;;24.10;49.00;;;;;;1557971;75;1134;-69
2022/01/16 09:22:51;;;;;;;;;;;24.10;49.10;;;;;;1560321;75;723;-69
2022/01/16 09:24:53;;;;;;;;;;;24.10;49.00;;;;;;1555076;75;707;-68
2022/01/16 09:26:56;;;;;;;;;;;24.10;49.00;;;;;;1577878;75;657;-69
2022/01/16 09:28:58;;;;;;;;;;;24.10;49.00;;;;;;1538867;76;1926;-69
2022/01/16 09:31:00;;;;;;;;;;;24.10;48.90;;;;;;1537126;76;1122;-69
2022/01/16 09:33:02;;;;;;;;;;;24.10;48.90;;;;;;1549869;76;721;-69
2022/01/16 09:35:04;;;;;;;;;;;24.10;48.90;;;;;;1555077;76;679;-69
2022/01/16 09:37:08;;;;;;;;;;;24.10;48.90;;;;;;1549168;75;667;-68
2022/01/16 09:39:09;;;;;;;;;;;24.10;48.90;;;;;;1536808;76;1121;-70
2022/01/16 09:41:11;;;;;;;;;;;24.20;48.90;;;;;;1541542;76;1135;-68
2022/01/16 09:43:13;;;;;;;;;;;24.20;48.90;;;;;;1537136;76;749;-68
2022/01/16 09:45:16;;;;;;;;;;;24.20;48.80;;;;;;1539839;76;790;-67
2022/01/16 09:47:18;;;;;;;;;;;24.20;48.70;;;;;;1537241;76;741;-69
2022/01/16 09:49:20;;;;;;;;;;;24.20;48.70;;;;;;1539107;76;1946;-68
2022/01/16 09:51:22;;;;;;;;;;;24.10;48.70;;;;;;1537324;76;1152;-73
2022/01/16 09:53:23;;;;;;;;;;;24.20;48.70;;;;;;1537135;76;712;-69
2022/01/16 09:55:25;;;;;;;;;;;24.20;48.60;;;;;;1537089;76;782;-68
2022/01/16 09:57:27;;;;;;;;;;;24.20;48.60;;;;;;1538616;76;796;-68
2022/01/16 09:59:29;;;;;;;;;;;24.30;48.70;;;;;;1537629;76;769;-68
2022/01/16 10:01:31;;;;;;;;;;;24.20;48.50;;;;;;1541927;76;1092;-68
2022/01/16 10:03:34;;;;;;;;;;;24.30;48.60;;;;;;1562113;75;718;-71
2022/01/16 10:05:37;;;;;;;;;;;24.20;48.50;;;;;;1552133;75;787;-70
2022/01/16 10:07:41;;;;;;;;;;;24.20;48.50;;;;;;1542544;75;721;-71
2022/01/16 10:09:44;;;;;;;;;;;24.20;48.60;;;;;;1537092;76;1920;-70
2022/01/16 10:11:49;;;;;;;;;;;24.20;48.60;;;;;;1537269;76;1075;-71
2022/01/16 10:14:09;;;;;;;;;;;24.20;48.70;;;;;;1508756;77;1144;-70
2022/01/16 10:16:05;;;;;;;;;;;24.20;48.80;;;;;;1551353;76;1586;-70
2022/01/16 10:18:07;;;;;;;;;;;24.20;48.80;;;;;;1548208;76;732;-70
2022/01/16 10:20:10;;;;;;;;;;;24.20;48.80;;;;;;1550803;76;1134;-70
2022/01/16 10:22:12;;;;;;;;;;;24.20;48.70;;;;;;1560592;75;745;-70
2022/01/16 10:24:18;;;;;;;;;;;24.20;48.80;;;;;;1559069;75;744;-71
2022/01/16 10:26:20;;;;;;;;;;;24.20;48.90;;;;;;1562672;75;703;-69
2022/01/16 10:28:23;;;;;;;;;;;24.10;48.90;;;;;;1559820;75;1927;-70
2022/01/16 10:30:25;;;;;;;;;;;24.00;48.90;;;;;;1565173;75;1148;-72
2022/01/16 10:32:28;;;;;;;;;;;24.00;49.00;;;;;;1560952;75;741;-71
2022/01/16 10:34:34;;;;;;;;;;;24.10;49.20;;;;;;1576397;75;725;-67
2022/01/16 10:36:37;;;;;;;;;;;24.00;49.10;;;;;;1561521;75;1114;-70
2022/01/16 10:38:39;;;;;;;;;;;24.10;49.30;;;;;;1563093;75;707;-69
2022/01/16 10:40:41;;;;;;;;;;;24.00;49.20;;;;;;1562523;76;1174;-69
2022/01/16 10:42:44;;;;;;;;;;;24.00;49.20;;;;;;1561749;76;719;-71
2022/01/16 10:44:46;;;;;;;;;;;24.00;49.20;;;;;;1571853;75;1058;-69
2022/01/16 10:46:48;;;;;;;;;;;24.10;49.40;;;;;;1578817;75;684;-70
2022/01/16 10:48:50;;;;;;;;;;;24.00;49.30;;;;;;1580170;75;1922;-68
2022/01/16 10:50:52;;;;;;;;;;;24.00;49.30;;;;;;1561686;76;1123;-69
2022/01/16 10:52:58;;;;;;;;;;;24.10;49.50;;;;;;1561668;75;734;-69
2022/01/16 10:55:06;;;;;;;;;;;24.10;49.50;;;;;;1560837;75;723;-68
2022/01/16 10:57:19;;;;;;;;;;;24.00;49.40;;;;;;1553695;75;828;-71
2022/01/16 10:59:22;;;;;;;;;;;24.00;49.40;;;;;;1505014;76;1150;-71
2022/01/16 11:01:24;;;;;;;;;;;24.00;49.50;;;;;;1552351;75;1121;-69
2022/01/16 11:03:26;;;;;;;;;;;24.10;49.60;;;;;;1562439;75;799;-70
2022/01/16 11:05:28;;;;;;;;;;;24.20;49.70;;;;;;1548903;74;795;-69
2022/01/16 11:07:30;;;;;;;;;;;24.10;49.70;;;;;;1554645;75;759;-71
2022/01/16 11:09:32;;;;;;;;;;;24.10;49.60;;;;;;1575129;75;1947;-71
2022/01/16 11:11:34;;;;;;;;;;;24.00;49.40;;;;;;1589271;75;1082;-71
2022/01/16 11:13:36;;;;;;;;;;;24.00;49.40;;;;;;1590857;75;724;-71
2022/01/16 11:15:38;;;;;;;;;;;24.00;49.40;;;;;;1577651;75;721;-71
2022/01/16 11:17:40;;;;;;;;;;;24.10;49.50;;;;;;1563170;76;627;-71
2022/01/16 11:19:42;;;;;;;;;;;24.10;49.50;;;;;;1562227;76;589;-70
2022/01/16 11:21:45;;;;;;;;;;;24.00;49.40;;;;;;1563119;75;1134;-71
2022/01/16 11:25:58;;;;;;;;;;;24.10;49.40;;;;;;1555481;75;808;-71
2022/01/16 11:28:02;;;;;;;;;;;24.10;49.40;;;;;;1555575;76;622;-71
2022/01/16 11:30:04;;;;;;;;;;;24.10;49.20;;;;;;1562663;75;1904;-72
2022/01/16 11:32:06;;;;;;;;;;;24.10;49.30;;;;;;1569206;75;725;-71
2022/01/16 11:34:08;;;;;;;;;;;24.00;49.10;;;;;;1575783;75;735;-70
2022/01/16 11:36:17;;;;;;;;;;;24.10;49.20;;;;;;1576291;75;726;-71
2022/01/16 11:38:19;;;;;;;;;;;24.10;49.20;;;;;;1590366;75;652;-71
2022/01/16 11:40:30;;;;;;;;;;;24.00;49.10;;;;;;1566664;75;1167;-71
2022/01/16 11:42:36;;;;;;;;;;;24.00;49.10;;;;;;1559511;75;767;-72
2022/01/16 11:44:35;;;;;;;;;;;24.10;49.20;;;;;;1563328;75;1191;-71
2022/01/16 11:46:41;;;;;;;;;;;24.10;49.20;;;;;;1569358;75;805;-70
2022/01/16 11:48:46;;;;;;;;;;;24.00;49.00;;;;;;1567937;75;1920;-72
2022/01/16 11:50:47;;;;;;;;;;;24.10;49.20;;;;;;1568988;75;1447;-71
2022/01/16 11:52:49;;;;;;;;;;;24.10;49.20;;;;;;1561564;75;725;-71
2022/01/16 11:54:51;;;;;;;;;;;24.10;49.10;;;;;;1568649;75;791;-71
2022/01/16 11:56:54;;;;;;;;;;;24.10;49.20;;;;;;1569422;75;711;-71
2022/01/16 11:59:12;;;;;;;;;;;24.10;49.20;;;;;;1562304;75;668;-71
2022/01/16 12:01:16;;;;;;;;;;;24.10;49.10;;;;;;1569322;75;1109;-70
2022/01/16 12:03:34;;;;;;;;;;;24.10;49.10;;;;;;1564942;75;959;-71
2022/01/16 12:05:36;;;;;;;;;;;24.10;49.10;;;;;;1560418;75;773;-71
2022/01/16 12:07:45;;;;;;;;;;;24.10;49.00;;;;;;1566005;75;690;-71
2022/01/16 12:11:48;;;;;;;;;;;24.10;49.00;;;;;;1562808;75;1426;-71
2022/01/16 12:13:52;;;;;;;;;;;24.10;49.00;;;;;;1564561;75;715;-71
2022/01/16 12:15:55;;;;;;;;;;;24.10;49.00;;;;;;1563548;75;1637;-73
2022/01/16 12:17:57;;;;;;;;;;;24.10;49.10;;;;;;1559852;75;960;-71
2022/01/16 12:20:17;;;;;;;;;;;24.20;48.90;;;;;;1562335;75;1170;-71
2022/01/16 12:22:20;;;;;;;;;;;24.10;48.90;;;;;;1557137;75;757;-70
2022/01/16 12:24:36;;;;;;;;;;;24.20;48.90;;;;;;1559245;75;691;-71
2022/01/16 12:26:38;;;;;;;;;;;24.20;48.90;;;;;;1555321;75;1019;-71
2022/01/16 12:28:41;;;;;;;;;;;24.20;48.90;;;;;;1576935;75;1943;-70
2022/01/16 12:30:55;;;;;;;;;;;24.20;48.90;;;;;;1565603;75;1153;-72
2022/01/16 12:32:54;;;;;;;;;;;24.20;48.90;;;;;;1557139;75;1519;-71
2022/01/16 12:34:56;;;;;;;;;;;24.10;48.80;;;;;;1559120;75;741;-70
2022/01/16 12:36:58;;;;;;;;;;;24.20;48.80;;;;;;1567983;75;808;-72
2022/01/16 12:39:11;;;;;;;;;;;24.20;48.80;;;;;;1570168;75;738;-72
2022/01/16 12:41:20;;;;;;;;;;;24.20;48.80;;;;;;1569290;75;1138;-71
2022/01/16 12:43:32;;;;;;;;;;;24.20;48.80;;;;;;1571046;75;943;-71
2022/01/16 12:45:37;;;;;;;;;;;24.20;48.80;;;;;;1571860;75;712;-72
2022/01/16 12:47:39;;;;;;;;;;;24.20;48.80;;;;;;1572067;75;844;-71
2022/01/16 12:49:41;;;;;;;;;;;24.20;48.90;;;;;;1562530;75;1974;-69
2022/01/16 12:51:44;;;;;;;;;;;24.20;48.80;;;;;;1571908;73;1078;-71
2022/01/16 12:53:47;;;;;;;;;;;24.20;48.80;;;;;;1572061;75;709;-71
2022/01/16 12:55:49;;;;;;;;;;;24.30;49.00;;;;;;1579037;75;787;-71
2022/01/16 12:57:51;;;;;;;;;;;24.20;48.90;;;;;;1565042;74;723;-72
2022/01/16 12:59:52;;;;;;;;;;;24.20;48.90;;;;;;1555326;75;1107;-73